Terminal Aerodrome Forecast
Issued by NWS

Home | Current Version | Previous Version | Text Only | Print | Product List | Glossary On
Versions: 1 2 3 4 5 6 7 8 9 10 11 12 13 14 15 16 17
000
FTUS44 KEWX 250500
TAFSSF
TAF
KSSF 250520Z 2506/2606 00000KT P6SM SCT250
     FM250800 17004KT P6SM FEW015 FEW250
     FM251600 15006KT P6SM SCT050
     FM252300 13010KT P6SM FEW060=

USA.gov is the U.S. government's official web portal to all federal, state and local government web resources and services.